createdAt,value
2018-07-27T00:00:14.642Z,0
2018-07-27T00:01:14.738Z,0
2018-07-27T00:02:14.812Z,0
2018-07-27T00:03:14.746Z,0
2018-07-27T00:04:14.751Z,0
2018-07-27T00:05:14.748Z,0
2018-07-27T00:06:14.789Z,0
2018-07-27T00:07:14.813Z,0
2018-07-27T00:08:14.766Z,0
2018-07-27T00:09:14.791Z,0
2018-07-27T00:10:14.714Z,0
2018-07-27T00:11:14.782Z,0
2018-07-27T00:12:14.753Z,0
2018-07-27T00:13:14.689Z,0
2018-07-27T00:14:14.688Z,0
2018-07-27T00:15:14.729Z,0
2018-07-27T00:16:14.666Z,0
2018-07-27T00:17:14.729Z,0
2018-07-27T00:18:14.666Z,0
2018-07-27T00:19:14.726Z,0
2018-07-27T00:20:14.758Z,0
2018-07-27T00:21:14.692Z,0
2018-07-27T00:22:14.733Z,0
2018-07-27T00:23:14.805Z,0
2018-07-27T00:24:14.806Z,0
2018-07-27T00:25:14.804Z,0
2018-07-27T00:26:14.735Z,0
2018-07-27T00:27:14.692Z,0
2018-07-27T00:28:14.806Z,0
2018-07-27T00:29:14.737Z,0
2018-07-27T00:30:14.824Z,0
2018-07-27T00:31:14.744Z,0
2018-07-27T00:32:14.723Z,0
2018-07-27T00:33:14.736Z,0
2018-07-27T00:34:14.715Z,0
2018-07-27T00:35:14.716Z,0
2018-07-27T00:36:14.755Z,0
2018-07-27T00:37:14.765Z,0
2018-07-27T00:38:14.733Z,0
2018-07-27T00:39:14.734Z,0
2018-07-27T00:40:14.807Z,0
2018-07-27T00:41:14.722Z,0
2018-07-27T00:42:14.813Z,0
2018-07-27T00:43:14.810Z,0
2018-07-27T00:44:14.774Z,0
2018-07-27T00:45:14.841Z,0
2018-07-27T00:46:14.852Z,0
2018-07-27T00:47:14.773Z,0
2018-07-27T00:48:14.864Z,0
2018-07-27T00:49:14.786Z,0
2018-07-27T00:50:14.785Z,0
2018-07-27T00:51:14.855Z,0
2018-07-27T00:52:14.755Z,0
2018-07-27T00:53:14.827Z,0
2018-07-27T00:54:14.818Z,0
2018-07-27T00:55:14.826Z,0
2018-07-27T00:56:14.756Z,0
2018-07-27T00:57:14.830Z,0
2018-07-27T00:58:14.764Z,0
2018-07-27T00:59:14.715Z,0
2018-07-27T01:00:14.831Z,0
2018-07-27T01:01:14.832Z,0
2018-07-27T01:02:14.845Z,0
2018-07-27T01:03:14.771Z,0
2018-07-27T01:04:14.859Z,0
2018-07-27T01:05:14.734Z,0
2018-07-27T01:06:14.797Z,0
2018-07-27T01:07:14.773Z,0
2018-07-27T01:08:14.793Z,0
2018-07-27T01:09:14.797Z,0
2018-07-27T01:10:14.862Z,0
2018-07-27T01:11:14.742Z,0
2018-07-27T01:12:14.815Z,0
2018-07-27T01:13:14.773Z,0
2018-07-27T01:14:14.808Z,0
2018-07-27T01:15:14.880Z,0
2018-07-27T01:16:14.744Z,0
2018-07-27T01:17:14.764Z,0
2018-07-27T01:18:14.814Z,0
2018-07-27T01:19:14.877Z,0
2018-07-27T01:20:14.802Z,0
2018-07-27T01:21:14.869Z,0
2018-07-27T01:22:14.746Z,0
2018-07-27T01:23:14.842Z,0
2018-07-27T01:24:14.846Z,0
2018-07-27T01:25:14.877Z,0
2018-07-27T01:26:14.862Z,0
2018-07-27T01:27:14.845Z,0
2018-07-27T01:28:14.887Z,0
2018-07-27T01:29:14.773Z,0
2018-07-27T01:30:14.823Z,0
2018-07-27T01:31:14.854Z,0
2018-07-27T01:32:14.886Z,0
2018-07-27T01:33:14.881Z,0
2018-07-27T01:34:14.883Z,0
2018-07-27T01:35:14.833Z,0
2018-07-27T01:36:14.756Z,0
2018-07-27T01:37:14.930Z,0
2018-07-27T01:38:14.853Z,0
2018-07-27T01:39:14.762Z,0
2018-07-27T01:40:14.894Z,0
2018-07-27T01:41:14.831Z,0
2018-07-27T01:42:14.803Z,0
2018-07-27T01:43:14.858Z,0
2018-07-27T01:44:14.793Z,0
2018-07-27T01:45:14.858Z,0
2018-07-27T01:46:14.791Z,0
2018-07-27T01:47:14.860Z,0
2018-07-27T01:48:14.796Z,0
2018-07-27T01:49:14.865Z,0
2018-07-27T01:50:14.796Z,0
2018-07-27T01:51:14.798Z,0
2018-07-27T01:52:14.794Z,0
2018-07-27T01:53:14.799Z,0
2018-07-27T01:54:14.872Z,0
2018-07-27T01:55:14.867Z,0
2018-07-27T01:56:14.802Z,0
2018-07-27T01:57:14.866Z,0
2018-07-27T01:58:14.834Z,0
2018-07-27T01:59:14.800Z,0
2018-07-27T02:00:14.803Z,0
2018-07-27T02:01:14.873Z,0
2018-07-27T02:02:14.867Z,0
2018-07-27T02:03:14.804Z,0
2018-07-27T02:04:14.807Z,0
2018-07-27T02:05:14.820Z,0
2018-07-27T02:06:14.805Z,0
2018-07-27T02:07:14.872Z,0
2018-07-27T02:08:14.806Z,0
2018-07-27T02:09:14.876Z,0
2018-07-27T02:10:14.812Z,0
2018-07-27T02:11:14.814Z,0
2018-07-27T02:12:14.814Z,0
2018-07-27T02:13:14.865Z,0
2018-07-27T02:14:14.831Z,0
2018-07-27T02:15:14.832Z,0
2018-07-27T02:16:14.872Z,0
2018-07-27T02:17:14.863Z,0
2018-07-27T02:18:14.839Z,0
2018-07-27T02:19:14.954Z,0
2018-07-27T02:20:14.753Z,0
2018-07-27T02:21:14.840Z,0
2018-07-27T02:22:14.870Z,0
2018-07-27T02:23:14.917Z,0
2018-07-27T02:24:14.905Z,0
2018-07-27T02:25:14.944Z,0
2018-07-27T02:26:14.929Z,0
2018-07-27T02:27:14.862Z,0
2018-07-27T02:28:14.794Z,0
2018-07-27T02:29:14.898Z,0
2018-07-27T02:30:14.831Z,0
2018-07-27T02:31:14.870Z,0
2018-07-27T02:32:14.871Z,0
2018-07-27T02:33:14.897Z,0
2018-07-27T02:34:14.897Z,0
2018-07-27T02:35:14.826Z,0
2018-07-27T02:36:14.900Z,0
2018-07-27T02:37:14.900Z,0
2018-07-27T02:38:14.897Z,0
2018-07-27T02:39:14.782Z,0
2018-07-27T02:40:14.900Z,0
2018-07-27T02:42:14.907Z,0
2018-07-27T02:43:14.836Z,0
2018-07-27T02:44:14.836Z,0
2018-07-27T02:45:14.901Z,0
2018-07-27T02:46:14.845Z,0
2018-07-27T02:47:14.822Z,0
2018-07-27T02:48:14.863Z,4
2018-07-27T02:49:14.871Z,4
2018-07-27T02:50:14.827Z,4
2018-07-27T02:51:14.932Z,4
2018-07-27T02:52:14.853Z,0
2018-07-27T02:53:14.898Z,4
2018-07-27T02:54:14.776Z,4
2018-07-27T02:55:14.839Z,4
2018-07-27T02:56:14.890Z,4
2018-07-27T02:57:14.802Z,4
2018-07-27T02:58:14.817Z,8
2018-07-27T02:59:14.841Z,8
2018-07-27T03:00:14.807Z,12
2018-07-27T03:01:14.894Z,12
2018-07-27T03:02:14.775Z,12
2018-07-27T03:03:14.784Z,16
2018-07-27T03:04:14.907Z,16
2018-07-27T03:05:14.906Z,20
2018-07-27T03:06:14.833Z,24
2018-07-27T03:07:14.837Z,28
2018-07-27T03:08:14.907Z,32
2018-07-27T03:09:14.838Z,36
2018-07-27T03:10:14.855Z,40
2018-07-27T03:11:14.790Z,44
2018-07-27T03:12:14.912Z,52
2018-07-27T03:13:14.939Z,64
2018-07-27T03:14:14.902Z,72
2018-07-27T03:15:14.883Z,84
2018-07-27T03:16:14.922Z,92
2018-07-27T03:17:14.956Z,104
2018-07-27T03:18:14.898Z,116
2018-07-27T03:19:14.961Z,136
2018-07-27T03:20:14.841Z,152
2018-07-27T03:21:14.847Z,172
2018-07-27T03:22:14.941Z,192
2018-07-27T03:23:14.832Z,220
2018-07-27T03:24:14.887Z,244
2018-07-27T03:25:14.927Z,268
2018-07-27T03:26:14.848Z,300
2018-07-27T03:27:14.929Z,336
2018-07-27T03:28:14.937Z,368
2018-07-27T03:29:14.952Z,404
2018-07-27T03:30:14.961Z,448
2018-07-27T03:31:14.932Z,492
2018-07-27T03:32:14.991Z,536
2018-07-27T03:33:14.965Z,584
2018-07-27T03:34:14.903Z,636
2018-07-27T03:35:14.935Z,692
2018-07-27T03:36:14.966Z,748
2018-07-27T03:37:14.897Z,812
2018-07-27T03:38:14.905Z,876
2018-07-27T03:39:14.896Z,940
2018-07-27T03:40:14.877Z,1012
2018-07-27T03:41:14.893Z,1084
2018-07-27T03:42:14.904Z,1164
2018-07-27T03:43:15.019Z,1240
2018-07-27T03:44:14.940Z,1324
2018-07-27T03:45:14.960Z,1412
2018-07-27T03:46:14.865Z,1500
2018-07-27T03:47:15.018Z,1588
2018-07-27T03:48:14.906Z,1684
2018-07-27T03:49:14.957Z,1784
2018-07-27T03:50:14.984Z,1880
2018-07-27T03:51:14.961Z,1980
2018-07-27T03:52:14.944Z,2084
2018-07-27T03:53:14.937Z,2188
2018-07-27T03:54:14.904Z,2292
2018-07-27T03:55:14.850Z,2400
2018-07-27T03:56:14.949Z,2508
2018-07-27T03:57:14.833Z,2620
2018-07-27T03:58:14.946Z,2736
2018-07-27T03:59:14.936Z,2844
2018-07-27T04:00:14.837Z,2968
2018-07-27T04:01:14.936Z,3080
2018-07-27T04:02:14.918Z,3200
2018-07-27T04:03:14.893Z,3316
2018-07-27T04:04:14.991Z,3436
2018-07-27T04:05:14.980Z,3552
2018-07-27T04:06:14.860Z,3672
2018-07-27T04:07:14.946Z,3788
2018-07-27T04:08:15.031Z,3912
2018-07-27T04:09:14.991Z,4028
2018-07-27T04:10:14.956Z,4148
2018-07-27T04:11:14.866Z,4268
2018-07-27T04:12:14.868Z,4388
2018-07-27T04:13:14.865Z,4504
2018-07-27T04:14:14.915Z,4624
2018-07-27T04:15:14.868Z,4744
2018-07-27T04:16:14.863Z,4856
2018-07-27T04:17:14.918Z,4972
2018-07-27T04:18:14.913Z,5096
2018-07-27T04:19:14.959Z,5212
2018-07-27T04:20:14.886Z,5332
2018-07-27T04:21:14.835Z,5452
2018-07-27T04:22:14.853Z,5572
2018-07-27T04:23:14.966Z,5692
2018-07-27T04:24:14.932Z,5808
2018-07-27T04:25:14.887Z,5924
2018-07-27T04:26:15.028Z,6044
2018-07-27T04:27:14.971Z,6152
2018-07-27T04:28:14.933Z,6268
2018-07-27T04:29:14.934Z,6380
2018-07-27T04:30:14.873Z,6496
2018-07-27T04:31:14.894Z,6604
2018-07-27T04:32:15.012Z,6720
2018-07-27T04:33:14.946Z,6832
2018-07-27T04:34:14.950Z,6940
2018-07-27T04:35:14.939Z,7056
2018-07-27T04:36:15.008Z,7160
2018-07-27T04:37:14.975Z,7264
2018-07-27T04:38:14.974Z,7364
2018-07-27T04:39:14.956Z,7464
2018-07-27T04:40:14.898Z,7572
2018-07-27T04:41:15.116Z,7672
2018-07-27T04:42:14.956Z,7768
2018-07-27T04:43:14.981Z,7868
2018-07-27T04:44:14.920Z,7976
2018-07-27T04:45:14.917Z,8076
2018-07-27T04:46:14.939Z,8180
2018-07-27T04:47:14.931Z,8280
2018-07-27T04:48:14.921Z,8376
2018-07-27T04:49:14.928Z,8488
2018-07-27T04:50:14.924Z,8584
2018-07-27T04:51:14.919Z,8680
2018-07-27T04:52:14.985Z,8772
2018-07-27T04:53:14.985Z,8868
2018-07-27T04:54:14.922Z,8964
2018-07-27T04:55:14.986Z,9064
2018-07-27T04:56:14.943Z,9160
2018-07-27T04:57:14.921Z,9260
2018-07-27T04:58:14.988Z,9340
2018-07-27T04:59:14.957Z,9424
2018-07-27T05:00:14.945Z,9504
2018-07-27T05:01:14.991Z,9584
2018-07-27T05:02:14.926Z,9660
2018-07-27T05:03:14.903Z,9740
2018-07-27T05:04:15.015Z,9820
2018-07-27T05:05:14.966Z,9892
2018-07-27T05:06:15.024Z,9968
2018-07-27T05:07:14.996Z,10036
2018-07-27T05:08:15.000Z,10100
2018-07-27T05:09:14.960Z,10164
2018-07-27T05:10:14.899Z,10224
2018-07-27T05:11:14.997Z,10276
2018-07-27T05:12:14.979Z,10332
2018-07-27T05:13:14.898Z,10384
2018-07-27T05:14:15.025Z,10424
2018-07-27T05:15:14.961Z,10472
2018-07-27T05:16:15.018Z,10520
2018-07-27T05:17:15.032Z,10568
2018-07-27T05:18:14.982Z,10620
2018-07-27T05:19:15.037Z,10680
2018-07-27T05:20:14.922Z,10740
2018-07-27T05:21:15.005Z,10812
2018-07-27T05:22:15.004Z,10880
2018-07-27T05:23:14.979Z,10940
2018-07-27T05:24:15.026Z,10996
2018-07-27T05:25:14.978Z,11048
2018-07-27T05:26:14.946Z,11092
2018-07-27T05:27:14.912Z,11140
2018-07-27T05:28:15.009Z,11180
2018-07-27T05:29:15.032Z,11232
2018-07-27T05:30:15.048Z,11284
2018-07-27T05:31:15.046Z,11340
2018-07-27T05:32:15.045Z,11396
2018-07-27T05:33:15.023Z,11460
2018-07-27T05:34:15.092Z,11532
2018-07-27T05:35:15.030Z,11596
2018-07-27T05:36:14.971Z,11656
2018-07-27T05:37:14.956Z,11728
2018-07-27T05:38:14.947Z,11780
2018-07-27T05:39:14.951Z,11840
2018-07-27T05:40:15.020Z,11892
2018-07-27T05:41:15.015Z,11948
2018-07-27T05:42:14.952Z,12008
2018-07-27T05:43:15.014Z,12068
2018-07-27T05:44:15.015Z,12140
2018-07-27T05:45:14.956Z,12204
2018-07-27T05:46:15.013Z,12272
2018-07-27T05:47:14.968Z,12340
2018-07-27T05:48:14.927Z,12412
2018-07-27T05:49:15.018Z,12484
2018-07-27T05:50:15.026Z,13080
2018-07-27T05:51:14.979Z,26816
2018-07-27T05:52:15.021Z,41920
2018-07-27T05:53:14.894Z,44672
2018-07-27T05:54:14.935Z,45408
2018-07-27T05:55:15.016Z,45120
2018-07-27T05:56:14.897Z,44896
2018-07-27T05:57:14.958Z,44768
2018-07-27T05:58:14.975Z,45152
2018-07-27T05:59:15.025Z,46208
2018-07-27T06:00:15.018Z,48288
2018-07-27T06:01:15.027Z,50528
2018-07-27T06:02:15.028Z,51520
2018-07-27T06:03:15.020Z,52160
2018-07-27T06:04:15.032Z,52032
2018-07-27T06:05:14.903Z,51520
2018-07-27T06:06:14.972Z,51264
2018-07-27T06:07:14.939Z,52096
2018-07-27T06:08:15.030Z,53600
2018-07-27T06:09:14.989Z,55360
2018-07-27T06:10:15.023Z,56768
2018-07-27T06:11:15.088Z,57280
2018-07-27T06:12:15.025Z,57120
2018-07-27T06:13:15.013Z,56032
2018-07-27T06:14:15.019Z,55360
2018-07-27T06:15:15.018Z,54624
2018-07-27T06:16:15.062Z,54240
2018-07-27T06:17:15.005Z,54176
2018-07-27T06:18:15.099Z,54400
2018-07-27T06:19:15.002Z,55008
2018-07-27T06:20:15.021Z,55584
2018-07-27T06:21:15.008Z,56032
2018-07-27T06:22:15.080Z,56192
2018-07-27T06:23:15.008Z,55968
2018-07-27T06:24:15.114Z,55840
2018-07-27T06:25:14.987Z,55136
2018-07-27T06:26:15.035Z,54272
2018-07-27T06:27:14.989Z,54176
2018-07-27T06:28:15.152Z,55072
2018-07-27T06:29:15.041Z,57440
2018-07-27T06:30:15.011Z,60448
2018-07-27T06:31:14.950Z,62848
2018-07-27T06:32:15.058Z,64288
2018-07-27T06:33:14.996Z,65376
2018-07-27T06:34:15.011Z,65568
2018-07-27T06:35:15.074Z,65024
2018-07-27T06:36:15.084Z,65312
2018-07-27T06:37:15.084Z,66336
2018-07-27T06:38:15.082Z,67840
2018-07-27T06:39:15.028Z,69536
2018-07-27T06:40:14.961Z,71136
2018-07-27T06:41:15.080Z,72256
2018-07-27T06:42:15.083Z,72896
2018-07-27T06:43:15.101Z,73280
2018-07-27T06:44:14.994Z,73120
2018-07-27T06:45:15.031Z,72736
2018-07-27T06:46:15.062Z,71776
2018-07-27T06:47:15.063Z,70624
2018-07-27T06:48:14.996Z,70368
2018-07-27T06:50:15.107Z,70816
2018-07-27T06:51:15.066Z,71424
2018-07-27T06:52:14.999Z,71040
2018-07-27T06:53:15.096Z,70080
2018-07-27T06:54:15.035Z,69120
2018-07-27T06:55:15.031Z,69632
2018-07-27T06:56:15.106Z,71456
2018-07-27T06:57:15.032Z,74688
2018-07-27T06:58:14.992Z,79040
2018-07-27T06:59:14.977Z,83936
2018-07-27T07:00:15.105Z,86144
2018-07-27T07:01:14.984Z,86752
2018-07-27T07:02:15.098Z,86912
2018-07-27T07:03:15.055Z,85408
2018-07-27T07:04:15.113Z,82656
2018-07-27T07:05:15.119Z,79680
2018-07-27T07:06:15.035Z,77600
2018-07-27T07:07:15.075Z,76288
2018-07-27T07:08:15.139Z,77696
2018-07-27T07:09:15.055Z,80544
2018-07-27T07:10:15.079Z,84224
2018-07-27T07:11:15.084Z,86816
2018-07-27T07:12:14.986Z,87232
2018-07-27T07:13:14.986Z,85792
2018-07-27T07:14:15.062Z,84768
2018-07-27T07:15:15.088Z,84352
2018-07-27T07:16:15.113Z,83456
2018-07-27T07:17:15.083Z,83360
2018-07-27T07:18:15.085Z,83968
2018-07-27T07:19:15.025Z,85280
2018-07-27T07:20:15.087Z,88384
2018-07-27T07:21:15.114Z,92448
2018-07-27T07:22:15.092Z,95872
2018-07-27T07:23:15.017Z,98272
2018-07-27T07:24:15.025Z,98752
2018-07-27T07:25:15.127Z,96448
2018-07-27T07:26:15.149Z,92928
2018-07-27T07:27:15.081Z,90208
2018-07-27T07:28:14.967Z,88960
2018-07-27T07:29:15.088Z,88960
2018-07-27T07:30:15.084Z,90080
2018-07-27T07:31:15.091Z,92256
2018-07-27T07:32:14.978Z,95296
2018-07-27T07:33:15.148Z,98464
2018-07-27T07:34:14.998Z,100928
2018-07-27T07:35:15.124Z,101376
2018-07-27T07:36:15.052Z,101600
2018-07-27T07:37:15.018Z,100320
2018-07-27T07:38:15.133Z,98336
2018-07-27T07:39:15.140Z,97152
2018-07-27T07:40:15.126Z,98592
2018-07-27T07:41:15.103Z,99968
2018-07-27T07:42:15.103Z,101632
2018-07-27T07:43:15.062Z,102944
2018-07-27T07:44:15.067Z,102912
2018-07-27T07:45:15.027Z,101824
2018-07-27T07:46:15.028Z,100224
2018-07-27T07:47:15.133Z,100736
2018-07-27T07:48:15.087Z,101536
2018-07-27T07:49:15.115Z,102944
2018-07-27T07:50:15.124Z,102912
2018-07-27T07:51:15.085Z,104288
2018-07-27T07:52:15.152Z,104768
2018-07-27T07:53:15.045Z,105632
2018-07-27T07:54:15.122Z,106080
2018-07-27T07:55:15.114Z,107200
2018-07-27T07:56:15.046Z,106656
2018-07-27T07:57:15.152Z,105536
2018-07-27T07:58:14.998Z,106944
2018-07-27T07:59:15.122Z,108992
2018-07-27T08:00:15.053Z,110048
2018-07-27T08:01:15.143Z,111328
2018-07-27T08:02:15.052Z,112768
2018-07-27T08:03:15.058Z,111744
2018-07-27T08:04:15.170Z,109728
2018-07-27T08:05:15.090Z,108896
2018-07-27T08:06:15.076Z,109888
2018-07-27T08:07:15.044Z,111040
2018-07-27T08:08:15.041Z,112928
2018-07-27T08:09:15.121Z,116000
2018-07-27T08:10:15.098Z,118816
2018-07-27T08:11:15.156Z,120416
2018-07-27T08:12:15.158Z,119296
2018-07-27T08:13:15.065Z,117312
2018-07-27T08:14:15.074Z,114688
2018-07-27T08:15:15.126Z,111296
2018-07-27T08:16:15.063Z,110464
2018-07-27T08:17:15.091Z,112448
2018-07-27T08:18:15.062Z,116416
2018-07-27T08:19:15.062Z,120352
2018-07-27T08:20:15.128Z,124384
2018-07-27T08:21:15.070Z,127616
2018-07-27T08:22:15.131Z,128352
2018-07-27T08:23:15.057Z,126176
2018-07-27T08:24:15.145Z,121952
2018-07-27T08:25:15.163Z,117696
2018-07-27T08:26:15.137Z,115168
2018-07-27T08:27:15.193Z,113888
2018-07-27T08:28:15.141Z,114272
2018-07-27T08:29:15.069Z,116128
2018-07-27T08:30:15.072Z,118464
2018-07-27T08:31:15.134Z,121024
2018-07-27T08:32:15.137Z,124224
2018-07-27T08:33:15.144Z,125312
2018-07-27T08:34:15.141Z,125440
2018-07-27T08:35:15.076Z,124384
2018-07-27T08:36:15.076Z,123648
2018-07-27T08:37:15.083Z,123520
2018-07-27T08:38:15.094Z,123648
2018-07-27T08:39:15.076Z,123072
2018-07-27T08:40:15.083Z,123008
2018-07-27T08:41:15.143Z,123328
2018-07-27T08:42:15.082Z,123968
2018-07-27T08:43:15.144Z,126112
2018-07-27T08:44:15.153Z,127936
2018-07-27T08:45:15.104Z,128352
2018-07-27T08:46:15.185Z,128992
2018-07-27T08:47:15.147Z,127776
2018-07-27T08:48:15.116Z,126048
2018-07-27T08:49:15.130Z,124704
2018-07-27T08:50:15.177Z,124672
2018-07-27T08:51:15.295Z,126592
2018-07-27T08:52:15.114Z,129024
2018-07-27T08:53:15.120Z,132256
2018-07-27T08:54:15.192Z,134912
2018-07-27T08:55:15.174Z,135328
2018-07-27T08:56:15.064Z,134048
2018-07-27T08:57:15.127Z,132096
2018-07-27T08:58:15.117Z,129216
2018-07-27T08:59:15.157Z,128320
2018-07-27T09:00:15.120Z,128960
2018-07-27T09:01:15.178Z,130496
2018-07-27T09:02:15.134Z,133312
2018-07-27T09:03:15.123Z,136160
2018-07-27T09:04:15.111Z,138208
2018-07-27T09:05:15.098Z,138176
2018-07-27T09:06:15.042Z,138688
2018-07-27T09:07:15.119Z,137728
2018-07-27T09:08:15.151Z,137056
2018-07-27T09:09:15.070Z,136608
2018-07-27T09:10:15.197Z,135968
2018-07-27T09:11:15.149Z,137568
2018-07-27T09:12:15.159Z,138752
2018-07-27T09:13:15.120Z,139872
2018-07-27T09:14:15.140Z,140864
2018-07-27T09:15:15.131Z,142016
2018-07-27T09:16:15.144Z,143968
2018-07-27T09:17:15.227Z,145536
2018-07-27T09:18:15.167Z,144864
2018-07-27T09:19:15.209Z,141088
2018-07-27T09:20:15.138Z,137184
2018-07-27T09:21:15.138Z,133536
2018-07-27T09:22:15.168Z,129696
2018-07-27T09:23:15.096Z,125632
2018-07-27T09:24:15.313Z,124320
2018-07-27T09:25:15.654Z,125024
2018-07-27T09:26:15.153Z,126400
2018-07-27T09:27:15.083Z,125504
2018-07-27T09:28:15.133Z,128832
2018-07-27T09:29:15.155Z,134976
2018-07-27T09:30:15.195Z,139072
2018-07-27T09:31:15.134Z,142112
2018-07-27T09:32:15.203Z,145920
2018-07-27T09:33:15.202Z,148672
2018-07-27T09:34:15.225Z,150880
2018-07-27T09:35:15.282Z,150944
2018-07-27T09:36:15.213Z,150688
2018-07-27T09:37:15.092Z,148128
2018-07-27T09:38:15.216Z,142464
2018-07-27T09:39:15.227Z,138816
2018-07-27T09:40:15.093Z,138048
2018-07-27T09:41:15.205Z,136448
2018-07-27T09:42:15.144Z,137248
2018-07-27T09:43:15.169Z,140928
2018-07-27T09:44:15.190Z,143616
2018-07-27T09:45:15.189Z,143392
2018-07-27T09:46:15.121Z,143552
2018-07-27T09:47:15.119Z,141056
2018-07-27T09:48:15.126Z,141632
2018-07-27T09:49:15.127Z,142720
2018-07-27T09:50:15.211Z,143392
2018-07-27T09:51:15.192Z,143776
2018-07-27T09:52:15.155Z,142976
2018-07-27T09:53:15.128Z,144800
2018-07-27T09:54:15.128Z,146432
2018-07-27T09:55:15.124Z,147904
2018-07-27T09:56:15.070Z,150496
2018-07-27T09:57:15.180Z,153536
2018-07-27T09:58:15.125Z,156352
2018-07-27T09:59:15.149Z,155424
2018-07-27T10:00:15.089Z,151136
2018-07-27T10:01:15.150Z,148320
2018-07-27T10:02:15.156Z,142304
2018-07-27T10:03:15.134Z,140832
2018-07-27T10:04:15.201Z,140032
2018-07-27T10:05:15.139Z,144992
2018-07-27T10:06:15.168Z,147808
2018-07-27T10:07:15.146Z,151648
2018-07-27T10:08:15.239Z,155392
2018-07-27T10:09:15.207Z,157344
2018-07-27T10:10:15.209Z,157888
2018-07-27T10:11:15.232Z,155360
2018-07-27T10:12:15.230Z,152608
2018-07-27T10:13:15.141Z,147872
2018-07-27T10:14:15.123Z,147200
2018-07-27T10:15:15.177Z,147648
2018-07-27T10:16:15.209Z,148448
2018-07-27T10:17:15.248Z,150208
2018-07-27T10:18:15.182Z,152416
2018-07-27T10:19:15.130Z,155360
2018-07-27T10:20:15.181Z,157696
2018-07-27T10:21:15.211Z,156960
2018-07-27T10:22:15.235Z,155040
2018-07-27T10:23:15.117Z,154016
2018-07-27T10:24:15.242Z,152736
2018-07-27T10:25:15.248Z,150560
2018-07-27T10:26:15.144Z,149056
2018-07-27T10:27:15.223Z,148992
2018-07-27T10:28:15.253Z,151424
2018-07-27T10:29:15.186Z,152992
2018-07-27T10:30:15.249Z,154720
2018-07-27T10:31:15.177Z,157312
2018-07-27T10:32:15.145Z,157280
2018-07-27T10:33:15.179Z,155040
2018-07-27T10:34:15.117Z,154240
2018-07-27T10:35:15.209Z,156032
2018-07-27T10:36:15.204Z,158240
2018-07-27T10:37:15.157Z,159168
2018-07-27T10:38:15.094Z,161696
2018-07-27T10:39:15.093Z,160960
2018-07-27T10:40:15.083Z,158976
2018-07-27T10:41:15.162Z,157440
2018-07-27T10:42:15.209Z,157248
2018-07-27T10:43:15.166Z,158912
2018-07-27T10:44:15.187Z,162816
2018-07-27T10:45:15.201Z,163488
2018-07-27T10:46:15.206Z,161536
2018-07-27T10:47:15.170Z,153440
2018-07-27T10:48:15.233Z,140192
2018-07-27T10:49:15.153Z,127904
2018-07-27T10:50:15.250Z,121664
2018-07-27T10:51:15.261Z,123040
2018-07-27T10:52:15.237Z,131456
2018-07-27T10:53:15.176Z,143360
2018-07-27T10:54:15.235Z,153184
2018-07-27T10:55:15.171Z,156640
2018-07-27T10:56:15.188Z,151456
2018-07-27T10:57:15.173Z,145184
2018-07-27T10:58:15.237Z,139232
2018-07-27T10:59:15.263Z,133952
2018-07-27T11:00:15.305Z,127360
2018-07-27T11:01:15.241Z,126304
2018-07-27T11:02:15.242Z,128992
2018-07-27T11:03:15.245Z,130560
2018-07-27T11:04:15.194Z,128544
2018-07-27T11:05:15.268Z,127840
2018-07-27T11:06:15.184Z,128064
2018-07-27T11:07:15.146Z,125504
2018-07-27T11:08:15.272Z,123424
2018-07-27T11:09:15.282Z,122176
2018-07-27T11:10:15.279Z,124608
2018-07-27T11:11:15.219Z,126624
2018-07-27T11:12:15.285Z,130272
2018-07-27T11:13:15.292Z,135744
2018-07-27T11:14:15.182Z,138912
2018-07-27T11:15:15.175Z,142464
2018-07-27T11:16:15.287Z,144128
2018-07-27T11:17:15.225Z,141696
2018-07-27T11:18:15.196Z,137856
2018-07-27T11:19:15.172Z,131104
2018-07-27T11:20:15.160Z,127968
2018-07-27T11:21:15.244Z,127168
2018-07-27T11:22:15.132Z,127680
2018-07-27T11:23:15.214Z,129568
2018-07-27T11:24:15.221Z,130080
2018-07-27T11:25:15.230Z,132960
2018-07-27T11:26:15.222Z,135648
2018-07-27T11:27:15.179Z,133792
2018-07-27T11:28:15.285Z,131584
2018-07-27T11:29:15.221Z,131264
2018-07-27T11:30:15.282Z,135488
2018-07-27T11:31:15.291Z,138912
2018-07-27T11:32:15.218Z,138976
2018-07-27T11:33:15.277Z,140576
2018-07-27T11:34:15.195Z,143200
2018-07-27T11:35:15.262Z,148000
2018-07-27T11:36:15.255Z,149408
2018-07-27T11:37:15.267Z,148032
2018-07-27T11:38:15.139Z,148640
2018-07-27T11:39:15.190Z,146912
2018-07-27T11:40:15.219Z,141440
2018-07-27T11:41:15.175Z,138464
2018-07-27T11:42:15.271Z,139680
2018-07-27T11:43:15.258Z,145856
2018-07-27T11:44:15.238Z,149504
2018-07-27T11:45:15.242Z,150944
2018-07-27T11:46:15.209Z,150208
2018-07-27T11:47:15.306Z,147104
2018-07-27T11:48:15.207Z,147424
2018-07-27T11:49:15.247Z,150752
2018-07-27T11:50:15.316Z,155456
2018-07-27T11:51:15.213Z,157888
2018-07-27T11:52:15.294Z,159040
2018-07-27T11:53:15.317Z,159392
2018-07-27T11:54:15.276Z,159520
2018-07-27T11:55:15.207Z,156384
2018-07-27T11:56:15.207Z,153888
2018-07-27T11:57:15.279Z,153536
2018-07-27T11:58:15.217Z,152928
2018-07-27T11:59:15.282Z,154208
2018-07-27T12:00:15.347Z,156320
2018-07-27T12:01:15.216Z,158496
2018-07-27T12:02:15.223Z,161120
2018-07-27T12:03:15.281Z,160288
2018-07-27T12:04:15.185Z,157952
2018-07-27T12:05:15.284Z,154208
2018-07-27T12:06:15.230Z,152640
2018-07-27T12:07:15.194Z,152064
2018-07-27T12:08:15.225Z,153760
2018-07-27T12:09:15.276Z,157472
2018-07-27T12:10:15.236Z,45504
2018-07-27T12:11:15.190Z,34176
2018-07-27T12:12:15.325Z,81600
2018-07-27T12:13:15.192Z,153440
2018-07-27T12:14:15.335Z,150592
2018-07-27T12:15:15.544Z,151072
2018-07-27T12:16:15.279Z,151872
2018-07-27T12:17:15.163Z,153376
2018-07-27T12:18:15.194Z,156000
2018-07-27T12:19:15.228Z,151648
2018-07-27T12:20:15.246Z,153920
2018-07-27T12:21:15.394Z,153440
2018-07-27T12:22:15.244Z,152960
2018-07-27T12:23:15.230Z,153344
2018-07-27T12:24:15.230Z,155424
2018-07-27T12:25:15.162Z,154240
2018-07-27T12:26:15.168Z,153664
2018-07-27T12:27:15.330Z,154336
2018-07-27T12:28:15.208Z,154912
2018-07-27T12:29:15.207Z,157600
2018-07-27T12:30:15.254Z,157056
2018-07-27T12:31:15.251Z,150016
2018-07-27T12:32:15.256Z,44032
2018-07-27T12:33:15.294Z,48352
2018-07-27T12:34:15.238Z,154016
2018-07-27T12:35:15.312Z,150944
2018-07-27T12:36:15.239Z,149408
2018-07-27T12:37:15.308Z,148832
2018-07-27T12:38:15.306Z,151840
2018-07-27T12:39:15.312Z,149920
2018-07-27T12:40:15.347Z,150688
2018-07-27T12:41:15.311Z,152128
2018-07-27T12:42:15.313Z,149376
2018-07-27T12:43:15.251Z,145184
2018-07-27T12:44:15.245Z,146016
2018-07-27T12:45:15.313Z,147776
2018-07-27T12:46:15.248Z,145952
2018-07-27T12:47:15.251Z,147648
2018-07-27T12:48:15.313Z,146560
2018-07-27T12:49:15.251Z,145632
2018-07-27T12:50:15.313Z,144128
2018-07-27T12:51:15.259Z,142656
2018-07-27T12:52:15.250Z,140800
2018-07-27T12:53:15.253Z,141152
2018-07-27T12:54:15.294Z,140800
2018-07-27T12:55:15.291Z,141024
2018-07-27T12:56:15.342Z,141536
2018-07-27T12:57:15.299Z,141696
2018-07-27T12:58:15.358Z,140768
2018-07-27T12:59:15.280Z,142176
2018-07-27T13:00:15.322Z,143936
2018-07-27T13:01:15.263Z,144672
2018-07-27T13:02:15.232Z,144416
2018-07-27T13:03:15.327Z,142624
2018-07-27T13:04:15.259Z,139584
2018-07-27T13:05:15.353Z,138848
2018-07-27T13:06:15.324Z,139456
2018-07-27T13:07:15.263Z,140000
2018-07-27T13:08:15.331Z,140768
2018-07-27T13:09:15.264Z,143232
2018-07-27T13:10:15.336Z,144384
2018-07-27T13:11:15.327Z,142112
2018-07-27T13:12:15.265Z,141856
2018-07-27T13:13:15.383Z,140672